Terminal Aerodrome Forecast
Issued by NWS Sterling, VA

Current Version | Previous Version | Text Only | Print | Product List | Glossary On
Versions: 1 2 3 4 5 6 7 8 9 10 11 12 13 14 15 16 17 18 19 20 21 22 23 24 25 26 27 28 29 30 31
000
FTUS41 KLWX 021126
TAFDCA
TAF
KDCA 021126Z 0212/0312 01007KT P6SM -SHRA BKN070
     FM021300 03004KT P6SM SCT050 BKN070
     FM030000 11004KT P6SM SCT050 BKN140
     FM030700 VRB03KT 5SM BR SCT050 BKN120=

USA.gov is the U.S. government's official web portal to all federal, state and local government web resources and services.